Terminal Aerodrome Forecast
Issued by NWS

Home | Current Version | Previous Version | Text Only | Print | Product List | Glossary On
Versions: 1 2 3 4 5 6 7 8 9 10 11 12 13 14 15 16 17 18 19 20 21 22 23 24 25 26 27 28 29 30 31 32 33 34 35 36 37 38 39 40 41 42 43 44 45 46
000
FTUS44 KOHX 181724
TAFCKV
TAF
KCKV 181724Z 1818/1918 20007KT P6SM VCSH BKN035 OVC045
     FM182200 22004KT P6SM BKN100
     FM191000 22003KT 5SM BR BKN020
     FM191300 23006KT P6SM BKN050=

USA.gov is the U.S. government's official web portal to all federal, state and local government web resources and services.